MMCL/CUL METAR and TAF weather

Enter ICAO airport designator
Station Type Date Time Source
MMCL METAR 2019/08/18 04:40 UTC NOAA

MMCL 180440Z 03006KT 10SM BKN100 28/21 A2986 RMK 8/060 DSNT CB 1 4QUAD


Station Type Date Time Source
MMCL Decoded METAR 2019/08/18 04:40 UTC NOAA

Station name not available
Aug 18, 2019 - 12:40 AM EDT / 2019.08.18 0440 UTC
Wind: from the NNE (030 degrees) at 7 MPH (6 KT):0
Visibility: 10 mile(s):0
Sky conditions: mostly cloudy
Weather: Cumulonimbus clouds observed
Temperature: 82 F (28 C)
Dew Point: 69 F (21 C)
Relative Humidity: 65%
Pressure (altimeter): 29.86 in. Hg (1011 hPa)
ob: MMCL 180440Z 03006KT 10SM BKN100 28/21 A2986 RMK 8/060 DSNT CB 1 4QUAD
cycle: 4

Station Type Date Time Source
MMCL TAF 2019/08/18 06:22 UTC NOAA

TAF MMCL 180315Z 1806/1906 05007KT P6SM SCT020 BKN100
TEMPO 1806/1808 5SM -RA BKN020CB PROB40 1815/1819 5SM TSRA BKN020CB
FM182000 24010KT P6SM SCT025 BKN120 BKN250
FM190500 06005KT P6SM SCT020 BKN100

Example: see airport list